sensor_id;sensor_type;location;lat;lon;timestamp;P1;durP1;ratioP1;P2;durP2;ratioP2
69246;SDS011;56358;56.328;43.992;2023-09-30T00:00:22;14.90;;;8.43;;
69246;SDS011;56358;56.328;43.992;2023-09-30T00:02:23;13.73;;;7.78;;
69246;SDS011;56358;56.328;43.992;2023-09-30T00:04:23;15.13;;;7.88;;
69246;SDS011;56358;56.328;43.992;2023-09-30T00:06:24;13.93;;;7.35;;
69246;SDS011;56358;56.328;43.992;2023-09-30T00:08:25;14.00;;;7.30;;
69246;SDS011;56358;56.328;43.992;2023-09-30T00:10:25;14.48;;;7.60;;
69246;SDS011;56358;56.328;43.992;2023-09-30T00:12:26;12.65;;;7.97;;
69246;SDS011;56358;56.328;43.992;2023-09-30T00:14:27;15.05;;;7.80;;
69246;SDS011;56358;56.328;43.992;2023-09-30T00:16:28;15.85;;;8.63;;
69246;SDS011;56358;56.328;43.992;2023-09-30T00:18:29;15.27;;;9.63;;
69246;SDS011;56358;56.328;43.992;2023-09-30T00:20:30;17.70;;;9.68;;
69246;SDS011;56358;56.328;43.992;2023-09-30T00:22:30;16.58;;;10.18;;
69246;SDS011;56358;56.328;43.992;2023-09-30T00:24:31;20.45;;;10.63;;
69246;SDS011;56358;56.328;43.992;2023-09-30T00:26:32;17.42;;;10.00;;
69246;SDS011;56358;56.328;43.992;2023-09-30T00:28:32;18.35;;;10.60;;
69246;SDS011;56358;56.328;43.992;2023-09-30T00:30:33;15.73;;;9.20;;
69246;SDS011;56358;56.328;43.992;2023-09-30T00:32:33;15.85;;;9.07;;
69246;SDS011;56358;56.328;43.992;2023-09-30T00:34:34;17.90;;;10.30;;
69246;SDS011;56358;56.328;43.992;2023-09-30T00:36:35;20.25;;;11.57;;
69246;SDS011;56358;56.328;43.992;2023-09-30T00:38:39;21.67;;;11.57;;
69246;SDS011;56358;56.328;43.992;2023-09-30T00:40:49;23.02;;;12.40;;
69246;SDS011;56358;56.328;43.992;2023-09-30T00:42:50;24.25;;;12.80;;
69246;SDS011;56358;56.328;43.992;2023-09-30T00:44:50;23.70;;;12.70;;
69246;SDS011;56358;56.328;43.992;2023-09-30T00:46:51;21.02;;;11.90;;
69246;SDS011;56358;56.328;43.992;2023-09-30T00:48:52;23.10;;;12.30;;
69246;SDS011;56358;56.328;43.992;2023-09-30T00:50:53;23.25;;;11.85;;
69246;SDS011;56358;56.328;43.992;2023-09-30T00:52:54;21.10;;;11.25;;
69246;SDS011;56358;56.328;43.992;2023-09-30T00:54:55;24.25;;;11.35;;
69246;SDS011;56358;56.328;43.992;2023-09-30T00:56:55;22.92;;;11.43;;
69246;SDS011;56358;56.328;43.992;2023-09-30T00:58:57;18.08;;;10.77;;
69246;SDS011;56358;56.328;43.992;2023-09-30T01:00:59;19.63;;;10.63;;
69246;SDS011;56358;56.328;43.992;2023-09-30T01:02:59;17.13;;;8.73;;
69246;SDS011;56358;56.328;43.992;2023-09-30T01:05:04;17.33;;;8.93;;
69246;SDS011;56358;56.328;43.992;2023-09-30T01:07:05;16.52;;;8.98;;
69246;SDS011;56358;56.328;43.992;2023-09-30T01:09:05;15.60;;;8.60;;
69246;SDS011;56358;56.328;43.992;2023-09-30T01:11:07;19.27;;;8.65;;
69246;SDS011;56358;56.328;43.992;2023-09-30T01:13:09;17.20;;;9.32;;
69246;SDS011;56358;56.328;43.992;2023-09-30T01:15:09;13.77;;;8.30;;
69246;SDS011;56358;56.328;43.992;2023-09-30T01:17:10;16.58;;;9.18;;
69246;SDS011;56358;56.328;43.992;2023-09-30T01:19:13;16.30;;;8.57;;
69246;SDS011;56358;56.328;43.992;2023-09-30T01:21:14;15.38;;;8.75;;
69246;SDS011;56358;56.328;43.992;2023-09-30T01:23:15;16.98;;;8.88;;
69246;SDS011;56358;56.328;43.992;2023-09-30T01:25:15;14.55;;;8.48;;
69246;SDS011;56358;56.328;43.992;2023-09-30T01:27:16;16.25;;;9.00;;
69246;SDS011;56358;56.328;43.992;2023-09-30T01:29:18;18.63;;;8.97;;
69246;SDS011;56358;56.328;43.992;2023-09-30T01:31:19;17.05;;;9.88;;
69246;SDS011;56358;56.328;43.992;2023-09-30T01:33:19;16.55;;;9.18;;
69246;SDS011;56358;56.328;43.992;2023-09-30T01:35:20;18.05;;;10.82;;
69246;SDS011;56358;56.328;43.992;2023-09-30T01:37:22;20.50;;;11.23;;
69246;SDS011;56358;56.328;43.992;2023-09-30T01:39:22;17.42;;;10.23;;
69246;SDS011;56358;56.328;43.992;2023-09-30T01:41:23;18.15;;;9.90;;
69246;SDS011;56358;56.328;43.992;2023-09-30T01:43:23;18.27;;;10.23;;
69246;SDS011;56358;56.328;43.992;2023-09-30T01:45:24;16.98;;;10.07;;
69246;SDS011;56358;56.328;43.992;2023-09-30T01:47:25;18.65;;;10.40;;
69246;SDS011;56358;56.328;43.992;2023-09-30T01:49:25;18.05;;;10.23;;
69246;SDS011;56358;56.328;43.992;2023-09-30T01:51:26;18.27;;;11.02;;
69246;SDS011;56358;56.328;43.992;2023-09-30T01:53:28;19.33;;;9.50;;
69246;SDS011;56358;56.328;43.992;2023-09-30T01:55:28;18.08;;;9.70;;
69246;SDS011;56358;56.328;43.992;2023-09-30T01:57:29;19.35;;;10.10;;
69246;SDS011;56358;56.328;43.992;2023-09-30T01:59:29;17.75;;;10.32;;
69246;SDS011;56358;56.328;43.992;2023-09-30T02:01:30;17.13;;;10.40;;
69246;SDS011;56358;56.328;43.992;2023-09-30T02:03:31;18.00;;;9.63;;
69246;SDS011;56358;56.328;43.992;2023-09-30T02:05:32;18.90;;;9.63;;
69246;SDS011;56358;56.328;43.992;2023-09-30T02:07:32;18.63;;;9.73;;
69246;SDS011;56358;56.328;43.992;2023-09-30T02:09:33;20.17;;;9.40;;
69246;SDS011;56358;56.328;43.992;2023-09-30T02:11:37;18.55;;;10.30;;
69246;SDS011;56358;56.328;43.992;2023-09-30T02:13:37;19.15;;;10.30;;
69246;SDS011;56358;56.328;43.992;2023-09-30T02:15:41;19.25;;;9.85;;
69246;SDS011;56358;56.328;43.992;2023-09-30T02:17:42;17.30;;;9.75;;
69246;SDS011;56358;56.328;43.992;2023-09-30T02:19:45;16.55;;;9.18;;
69246;SDS011;56358;56.328;43.992;2023-09-30T02:22:06;17.55;;;9.57;;
69246;SDS011;56358;56.328;43.992;2023-09-30T02:24:07;17.05;;;9.63;;
69246;SDS011;56358;56.328;43.992;2023-09-30T02:26:07;16.60;;;8.90;;
69246;SDS011;56358;56.328;43.992;2023-09-30T02:28:08;18.15;;;9.30;;
69246;SDS011;56358;56.328;43.992;2023-09-30T02:30:09;16.92;;;9.27;;
69246;SDS011;56358;56.328;43.992;2023-09-30T02:32:11;18.67;;;9.38;;
69246;SDS011;56358;56.328;43.992;2023-09-30T02:34:14;16.65;;;8.57;;
69246;SDS011;56358;56.328;43.992;2023-09-30T02:36:15;17.10;;;8.93;;
69246;SDS011;56358;56.328;43.992;2023-09-30T02:38:15;17.77;;;9.20;;
69246;SDS011;56358;56.328;43.992;2023-09-30T02:40:17;20.27;;;10.35;;
69246;SDS011;56358;56.328;43.992;2023-09-30T02:42:19;13.90;;;8.48;;
69246;SDS011;56358;56.328;43.992;2023-09-30T02:44:23;19.65;;;8.85;;
69246;SDS011;56358;56.328;43.992;2023-09-30T02:46:24;15.57;;;9.13;;
69246;SDS011;56358;56.328;43.992;2023-09-30T02:48:28;14.93;;;8.40;;
69246;SDS011;56358;56.328;43.992;2023-09-30T02:50:29;16.20;;;8.65;;
69246;SDS011;56358;56.328;43.992;2023-09-30T02:52:30;20.50;;;9.38;;
69246;SDS011;56358;56.328;43.992;2023-09-30T02:54:31;16.88;;;9.20;;
69246;SDS011;56358;56.328;43.992;2023-09-30T02:56:31;17.10;;;8.65;;
69246;SDS011;56358;56.328;43.992;2023-09-30T02:58:32;16.50;;;8.70;;
69246;SDS011;56358;56.328;43.992;2023-09-30T03:00:32;17.80;;;9.45;;
69246;SDS011;56358;56.328;43.992;2023-09-30T03:02:33;14.57;;;8.93;;
69246;SDS011;56358;56.328;43.992;2023-09-30T03:04:34;13.55;;;7.47;;
69246;SDS011;56358;56.328;43.992;2023-09-30T03:06:34;15.75;;;8.05;;
69246;SDS011;56358;56.328;43.992;2023-09-30T03:08:37;12.63;;;7.17;;
69246;SDS011;56358;56.328;43.992;2023-09-30T03:10:37;14.55;;;7.80;;
69246;SDS011;56358;56.328;43.992;2023-09-30T03:12:40;14.75;;;7.53;;
69246;SDS011;56358;56.328;43.992;2023-09-30T03:14:41;18.25;;;8.00;;
69246;SDS011;56358;56.328;43.992;2023-09-30T03:16:42;15.88;;;7.93;;
69246;SDS011;56358;56.328;43.992;2023-09-30T03:18:44;17.50;;;7.70;;
69246;SDS011;56358;56.328;43.992;2023-09-30T03:20:45;14.73;;;8.30;;
69246;SDS011;56358;56.328;43.992;2023-09-30T03:22:45;14.43;;;7.20;;
69246;SDS011;56358;56.328;43.992;2023-09-30T03:24:49;15.60;;;7.80;;
69246;SDS011;56358;56.328;43.992;2023-09-30T03:26:49;16.08;;;7.55;;
69246;SDS011;56358;56.328;43.992;2023-09-30T03:28:50;13.57;;;7.65;;
69246;SDS011;56358;56.328;43.992;2023-09-30T03:30:50;17.50;;;7.45;;
69246;SDS011;56358;56.328;43.992;2023-09-30T03:32:51;13.73;;;7.22;;
69246;SDS011;56358;56.328;43.992;2023-09-30T03:34:52;15.15;;;7.60;;
69246;SDS011;56358;56.328;43.992;2023-09-30T03:36:52;14.55;;;7.60;;
69246;SDS011;56358;56.328;43.992;2023-09-30T03:38:55;13.52;;;6.78;;
69246;SDS011;56358;56.328;43.992;2023-09-30T03:40:59;16.00;;;7.82;;
69246;SDS011;56358;56.328;43.992;2023-09-30T03:43:00;18.83;;;8.40;;
69246;SDS011;56358;56.328;43.992;2023-09-30T03:45:01;17.33;;;8.20;;
69246;SDS011;56358;56.328;43.992;2023-09-30T03:47:04;15.52;;;8.02;;
69246;SDS011;56358;56.328;43.992;2023-09-30T03:49:05;15.60;;;8.10;;
69246;SDS011;56358;56.328;43.992;2023-09-30T03:51:09;16.52;;;8.05;;
69246;SDS011;56358;56.328;43.992;2023-09-30T03:53:13;15.80;;;8.23;;
69246;SDS011;56358;56.328;43.992;2023-09-30T03:55:18;17.58;;;9.05;;
69246;SDS011;56358;56.328;43.992;2023-09-30T03:57:20;15.85;;;8.48;;
69246;SDS011;56358;56.328;43.992;2023-09-30T03:59:21;16.67;;;8.48;;
69246;SDS011;56358;56.328;43.992;2023-09-30T04:01:21;19.55;;;8.93;;
69246;SDS011;56358;56.328;43.992;2023-09-30T04:03:23;18.98;;;8.68;;
69246;SDS011;56358;56.328;43.992;2023-09-30T04:05:24;17.73;;;9.50;;
69246;SDS011;56358;56.328;43.992;2023-09-30T04:07:26;15.77;;;8.80;;
69246;SDS011;56358;56.328;43.992;2023-09-30T04:09:27;15.90;;;8.70;;
69246;SDS011;56358;56.328;43.992;2023-09-30T04:11:27;16.80;;;8.88;;
69246;SDS011;56358;56.328;43.992;2023-09-30T04:13:28;15.43;;;8.20;;
69246;SDS011;56358;56.328;43.992;2023-09-30T04:15:29;16.92;;;8.82;;
69246;SDS011;56358;56.328;43.992;2023-09-30T04:17:31;17.02;;;8.55;;
69246;SDS011;56358;56.328;43.992;2023-09-30T04:19:32;17.30;;;8.60;;
69246;SDS011;56358;56.328;43.992;2023-09-30T04:21:33;15.68;;;8.18;;
69246;SDS011;56358;56.328;43.992;2023-09-30T04:23:34;21.23;;;8.13;;
69246;SDS011;56358;56.328;43.992;2023-09-30T04:25:36;14.30;;;7.55;;
69246;SDS011;56358;56.328;43.992;2023-09-30T04:27:37;20.48;;;8.55;;
69246;SDS011;56358;56.328;43.992;2023-09-30T04:29:37;13.55;;;7.05;;
69246;SDS011;56358;56.328;43.992;2023-09-30T04:31:39;15.98;;;7.43;;
69246;SDS011;56358;56.328;43.992;2023-09-30T04:33:41;16.38;;;7.18;;
69246;SDS011;56358;56.328;43.992;2023-09-30T04:35:42;12.68;;;7.22;;
69246;SDS011;56358;56.328;43.992;2023-09-30T04:37:44;15.73;;;7.45;;
69246;SDS011;56358;56.328;43.992;2023-09-30T04:39:45;15.48;;;7.20;;
69246;SDS011;56358;56.328;43.992;2023-09-30T04:41:46;12.43;;;7.35;;
69246;SDS011;56358;56.328;43.992;2023-09-30T04:43:47;12.75;;;7.22;;
69246;SDS011;56358;56.328;43.992;2023-09-30T04:45:48;14.07;;;7.45;;
69246;SDS011;56358;56.328;43.992;2023-09-30T04:47:53;18.55;;;8.00;;
69246;SDS011;56358;56.328;43.992;2023-09-30T04:49:56;15.63;;;8.65;;
69246;SDS011;56358;56.328;43.992;2023-09-30T04:51:58;16.80;;;7.95;;
69246;SDS011;56358;56.328;43.992;2023-09-30T04:53:58;14.35;;;8.02;;
69246;SDS011;56358;56.328;43.992;2023-09-30T04:55:59;13.35;;;7.88;;
69246;SDS011;56358;56.328;43.992;2023-09-30T04:58:01;12.98;;;7.18;;
69246;SDS011;56358;56.328;43.992;2023-09-30T05:00:01;14.10;;;7.80;;
69246;SDS011;56358;56.328;43.992;2023-09-30T05:02:10;14.40;;;6.80;;
69246;SDS011;56358;56.328;43.992;2023-09-30T05:04:11;21.40;;;8.45;;
69246;SDS011;56358;56.328;43.992;2023-09-30T05:06:12;17.40;;;8.35;;
69246;SDS011;56358;56.328;43.992;2023-09-30T05:08:12;15.05;;;9.32;;
69246;SDS011;56358;56.328;43.992;2023-09-30T05:10:14;17.20;;;7.50;;
69246;SDS011;56358;56.328;43.992;2023-09-30T05:12:16;14.32;;;7.65;;
69246;SDS011;56358;56.328;43.992;2023-09-30T05:14:17;20.52;;;8.90;;
69246;SDS011;56358;56.328;43.992;2023-09-30T05:16:17;15.48;;;8.43;;
69246;SDS011;56358;56.328;43.992;2023-09-30T05:18:18;20.70;;;9.13;;
69246;SDS011;56358;56.328;43.992;2023-09-30T05:20:19;17.73;;;8.80;;
69246;SDS011;56358;56.328;43.992;2023-09-30T05:22:20;18.15;;;9.02;;
69246;SDS011;56358;56.328;43.992;2023-09-30T05:24:23;15.05;;;8.70;;
69246;SDS011;56358;56.328;43.992;2023-09-30T05:26:24;18.50;;;8.73;;
69246;SDS011;56358;56.328;43.992;2023-09-30T05:28:24;16.58;;;8.63;;
69246;SDS011;56358;56.328;43.992;2023-09-30T05:30:26;14.82;;;8.85;;
69246;SDS011;56358;56.328;43.992;2023-09-30T05:32:26;18.83;;;8.90;;
69246;SDS011;56358;56.328;43.992;2023-09-30T05:34:27;13.43;;;7.80;;
69246;SDS011;56358;56.328;43.992;2023-09-30T05:36:28;15.73;;;8.50;;
69246;SDS011;56358;56.328;43.992;2023-09-30T05:38:29;16.83;;;8.25;;
69246;SDS011;56358;56.328;43.992;2023-09-30T05:40:31;14.48;;;8.93;;
69246;SDS011;56358;56.328;43.992;2023-09-30T05:42:32;18.38;;;8.68;;
69246;SDS011;56358;56.328;43.992;2023-09-30T05:44:33;14.38;;;8.05;;
69246;SDS011;56358;56.328;43.992;2023-09-30T05:46:34;17.67;;;8.77;;
69246;SDS011;56358;56.328;43.992;2023-09-30T05:48:35;18.65;;;9.48;;
69246;SDS011;56358;56.328;43.992;2023-09-30T05:50:35;13.38;;;7.70;;
69246;SDS011;56358;56.328;43.992;2023-09-30T05:52:36;17.70;;;8.25;;
69246;SDS011;56358;56.328;43.992;2023-09-30T05:54:37;19.77;;;8.02;;
69246;SDS011;56358;56.328;43.992;2023-09-30T05:56:38;15.20;;;8.68;;
69246;SDS011;56358;56.328;43.992;2023-09-30T05:58:40;13.45;;;8.35;;
69246;SDS011;56358;56.328;43.992;2023-09-30T06:00:42;14.20;;;7.93;;
69246;SDS011;56358;56.328;43.992;2023-09-30T06:02:43;16.90;;;8.90;;
69246;SDS011;56358;56.328;43.992;2023-09-30T06:04:44;19.08;;;9.57;;
69246;SDS011;56358;56.328;43.992;2023-09-30T06:06:46;18.02;;;9.02;;
69246;SDS011;56358;56.328;43.992;2023-09-30T06:08:46;16.55;;;8.60;;
69246;SDS011;56358;56.328;43.992;2023-09-30T06:10:47;23.17;;;7.88;;
69246;SDS011;56358;56.328;43.992;2023-09-30T06:12:48;14.55;;;8.15;;
69246;SDS011;56358;56.328;43.992;2023-09-30T06:14:54;16.88;;;8.15;;
69246;SDS011;56358;56.328;43.992;2023-09-30T06:16:55;17.80;;;8.48;;
69246;SDS011;56358;56.328;43.992;2023-09-30T06:18:56;15.95;;;7.70;;
69246;SDS011;56358;56.328;43.992;2023-09-30T06:20:56;14.65;;;8.45;;
69246;SDS011;56358;56.328;43.992;2023-09-30T06:22:57;19.30;;;9.15;;
69246;SDS011;56358;56.328;43.992;2023-09-30T06:24:58;15.13;;;8.18;;
69246;SDS011;56358;56.328;43.992;2023-09-30T06:26:59;16.23;;;8.38;;
69246;SDS011;56358;56.328;43.992;2023-09-30T06:28:59;17.48;;;8.70;;
69246;SDS011;56358;56.328;43.992;2023-09-30T06:31:00;19.63;;;8.23;;
69246;SDS011;56358;56.328;43.992;2023-09-30T06:33:01;15.15;;;7.95;;
69246;SDS011;56358;56.328;43.992;2023-09-30T06:35:02;20.27;;;8.65;;
69246;SDS011;56358;56.328;43.992;2023-09-30T06:37:04;14.98;;;7.55;;
69246;SDS011;56358;56.328;43.992;2023-09-30T06:39:04;18.40;;;7.88;;
69246;SDS011;56358;56.328;43.992;2023-09-30T06:41:06;14.77;;;7.30;;
69246;SDS011;56358;56.328;43.992;2023-09-30T06:43:06;17.33;;;8.68;;
69246;SDS011;56358;56.328;43.992;2023-09-30T06:45:08;15.77;;;8.23;;
69246;SDS011;56358;56.328;43.992;2023-09-30T06:47:10;16.80;;;8.75;;
69246;SDS011;56358;56.328;43.992;2023-09-30T06:49:12;20.83;;;8.80;;
69246;SDS011;56358;56.328;43.992;2023-09-30T06:51:13;18.15;;;7.85;;
69246;SDS011;56358;56.328;43.992;2023-09-30T06:53:18;19.48;;;9.45;;
69246;SDS011;56358;56.328;43.992;2023-09-30T06:55:19;17.48;;;8.88;;
69246;SDS011;56358;56.328;43.992;2023-09-30T06:57:20;13.68;;;8.02;;
69246;SDS011;56358;56.328;43.992;2023-09-30T06:59:20;18.33;;;9.18;;
69246;SDS011;56358;56.328;43.992;2023-09-30T07:01:21;20.73;;;8.85;;
69246;SDS011;56358;56.328;43.992;2023-09-30T07:03:21;19.98;;;9.07;;
69246;SDS011;56358;56.328;43.992;2023-09-30T07:05:22;20.92;;;8.63;;
69246;SDS011;56358;56.328;43.992;2023-09-30T07:07:23;17.67;;;8.60;;
69246;SDS011;56358;56.328;43.992;2023-09-30T07:09:24;15.90;;;8.95;;
69246;SDS011;56358;56.328;43.992;2023-09-30T07:11:30;20.35;;;8.80;;
69246;SDS011;56358;56.328;43.992;2023-09-30T07:13:33;15.63;;;8.63;;
69246;SDS011;56358;56.328;43.992;2023-09-30T07:15:33;19.63;;;9.23;;
69246;SDS011;56358;56.328;43.992;2023-09-30T07:17:34;20.60;;;9.35;;
69246;SDS011;56358;56.328;43.992;2023-09-30T07:19:35;20.77;;;8.68;;
69246;SDS011;56358;56.328;43.992;2023-09-30T07:21:36;18.60;;;8.32;;
69246;SDS011;56358;56.328;43.992;2023-09-30T07:23:37;18.45;;;8.65;;
69246;SDS011;56358;56.328;43.992;2023-09-30T07:25:38;15.90;;;8.45;;
69246;SDS011;56358;56.328;43.992;2023-09-30T07:27:38;19.77;;;8.40;;
69246;SDS011;56358;56.328;43.992;2023-09-30T07:29:39;14.23;;;7.28;;
69246;SDS011;56358;56.328;43.992;2023-09-30T07:31:39;16.58;;;8.35;;
69246;SDS011;56358;56.328;43.992;2023-09-30T07:33:40;13.18;;;7.32;;
69246;SDS011;56358;56.328;43.992;2023-09-30T07:35:41;17.27;;;7.20;;
69246;SDS011;56358;56.328;43.992;2023-09-30T07:37:42;17.27;;;8.40;;
69246;SDS011;56358;56.328;43.992;2023-09-30T07:39:43;15.02;;;8.65;;
69246;SDS011;56358;56.328;43.992;2023-09-30T07:41:44;18.70;;;8.77;;
69246;SDS011;56358;56.328;43.992;2023-09-30T07:43:44;15.60;;;9.15;;
69246;SDS011;56358;56.328;43.992;2023-09-30T07:45:45;15.77;;;7.93;;
69246;SDS011;56358;56.328;43.992;2023-09-30T07:47:45;14.98;;;7.95;;
69246;SDS011;56358;56.328;43.992;2023-09-30T07:49:46;18.23;;;8.43;;
69246;SDS011;56358;56.328;43.992;2023-09-30T07:51:47;14.05;;;7.72;;
69246;SDS011;56358;56.328;43.992;2023-09-30T07:53:47;18.13;;;7.97;;
69246;SDS011;56358;56.328;43.992;2023-09-30T07:55:48;18.77;;;9.43;;
69246;SDS011;56358;56.328;43.992;2023-09-30T07:57:49;15.93;;;9.13;;
69246;SDS011;56358;56.328;43.992;2023-09-30T07:59:49;16.08;;;7.72;;
69246;SDS011;56358;56.328;43.992;2023-09-30T08:01:50;15.05;;;7.20;;
69246;SDS011;56358;56.328;43.992;2023-09-30T08:03:50;18.95;;;8.18;;
69246;SDS011;56358;56.328;43.992;2023-09-30T08:05:51;13.60;;;7.43;;
69246;SDS011;56358;56.328;43.992;2023-09-30T08:07:52;16.15;;;7.72;;
69246;SDS011;56358;56.328;43.992;2023-09-30T08:09:53;19.90;;;7.95;;
69246;SDS011;56358;56.328;43.992;2023-09-30T08:11:54;13.90;;;7.20;;
69246;SDS011;56358;56.328;43.992;2023-09-30T08:13:56;18.08;;;8.48;;
69246;SDS011;56358;56.328;43.992;2023-09-30T08:15:56;14.25;;;8.13;;
69246;SDS011;56358;56.328;43.992;2023-09-30T08:17:57;14.07;;;7.45;;
69246;SDS011;56358;56.328;43.992;2023-09-30T08:19:58;20.40;;;8.60;;
69246;SDS011;56358;56.328;43.992;2023-09-30T08:21:58;18.88;;;8.68;;
69246;SDS011;56358;56.328;43.992;2023-09-30T08:23:59;17.95;;;7.95;;
69246;SDS011;56358;56.328;43.992;2023-09-30T08:26:00;24.58;;;8.18;;
69246;SDS011;56358;56.328;43.992;2023-09-30T08:28:00;19.58;;;8.30;;
69246;SDS011;56358;56.328;43.992;2023-09-30T08:30:01;16.58;;;7.97;;
69246;SDS011;56358;56.328;43.992;2023-09-30T08:32:05;18.42;;;8.38;;
69246;SDS011;56358;56.328;43.992;2023-09-30T08:34:07;18.13;;;7.78;;
69246;SDS011;56358;56.328;43.992;2023-09-30T08:36:08;18.25;;;8.15;;
69246;SDS011;56358;56.328;43.992;2023-09-30T08:38:09;18.60;;;8.15;;
69246;SDS011;56358;56.328;43.992;2023-09-30T08:40:10;16.60;;;8.18;;
69246;SDS011;56358;56.328;43.992;2023-09-30T08:42:11;17.75;;;8.30;;
69246;SDS011;56358;56.328;43.992;2023-09-30T08:44:12;18.27;;;7.72;;
69246;SDS011;56358;56.328;43.992;2023-09-30T08:46:13;17.88;;;8.00;;
69246;SDS011;56358;56.328;43.992;2023-09-30T08:48:14;22.58;;;8.63;;
69246;SDS011;56358;56.328;43.992;2023-09-30T08:50:16;14.95;;;7.72;;
69246;SDS011;56358;56.328;43.992;2023-09-30T08:52:17;19.83;;;8.55;;
69246;SDS011;56358;56.328;43.992;2023-09-30T08:54:18;19.02;;;7.82;;
69246;SDS011;56358;56.328;43.992;2023-09-30T08:56:20;14.90;;;7.75;;
69246;SDS011;56358;56.328;43.992;2023-09-30T08:58:29;19.02;;;8.02;;
69246;SDS011;56358;56.328;43.992;2023-09-30T09:00:29;10.88;;;6.80;;
69246;SDS011;56358;56.328;43.992;2023-09-30T09:02:30;17.23;;;8.32;;
69246;SDS011;56358;56.328;43.992;2023-09-30T09:04:33;16.23;;;7.80;;
69246;SDS011;56358;56.328;43.992;2023-09-30T09:06:34;17.52;;;8.57;;
69246;SDS011;56358;56.328;43.992;2023-09-30T09:08:34;18.98;;;8.68;;
69246;SDS011;56358;56.328;43.992;2023-09-30T09:10:35;13.30;;;7.95;;
69246;SDS011;56358;56.328;43.992;2023-09-30T09:12:38;13.60;;;8.00;;
69246;SDS011;56358;56.328;43.992;2023-09-30T09:14:40;16.05;;;7.93;;
69246;SDS011;56358;56.328;43.992;2023-09-30T09:16:53;17.75;;;8.55;;
69246;SDS011;56358;56.328;43.992;2023-09-30T09:18:55;15.18;;;7.90;;
69246;SDS011;56358;56.328;43.992;2023-09-30T09:21:07;17.60;;;8.13;;
69246;SDS011;56358;56.328;43.992;2023-09-30T09:23:11;18.98;;;8.82;;
69246;SDS011;56358;56.328;43.992;2023-09-30T09:25:15;17.00;;;9.15;;
69246;SDS011;56358;56.328;43.992;2023-09-30T09:27:15;15.23;;;9.10;;
69246;SDS011;56358;56.328;43.992;2023-09-30T09:29:16;15.30;;;9.23;;
69246;SDS011;56358;56.328;43.992;2023-09-30T09:31:28;21.98;;;8.90;;
69246;SDS011;56358;56.328;43.992;2023-09-30T09:33:36;16.02;;;8.52;;
69246;SDS011;56358;56.328;43.992;2023-09-30T09:35:37;15.13;;;8.70;;
69246;SDS011;56358;56.328;43.992;2023-09-30T09:37:37;18.77;;;10.80;;
69246;SDS011;56358;56.328;43.992;2023-09-30T09:39:38;15.00;;;8.90;;
69246;SDS011;56358;56.328;43.992;2023-09-30T09:41:54;17.17;;;8.45;;
69246;SDS011;56358;56.328;43.992;2023-09-30T09:43:58;17.33;;;9.02;;
69246;SDS011;56358;56.328;43.992;2023-09-30T09:46:00;14.93;;;9.02;;
69246;SDS011;56358;56.328;43.992;2023-09-30T09:48:04;14.32;;;7.95;;
69246;SDS011;56358;56.328;43.992;2023-09-30T09:50:05;21.08;;;8.73;;
69246;SDS011;56358;56.328;43.992;2023-09-30T09:52:06;13.30;;;7.55;;
69246;SDS011;56358;56.328;43.992;2023-09-30T09:54:07;13.30;;;7.13;;
69246;SDS011;56358;56.328;43.992;2023-09-30T09:56:09;12.52;;;7.00;;
69246;SDS011;56358;56.328;43.992;2023-09-30T09:58:10;13.50;;;7.00;;
69246;SDS011;56358;56.328;43.992;2023-09-30T10:00:11;12.75;;;7.00;;
69246;SDS011;56358;56.328;43.992;2023-09-30T10:02:23;17.60;;;6.97;;
69246;SDS011;56358;56.328;43.992;2023-09-30T10:04:25;12.15;;;6.70;;
69246;SDS011;56358;56.328;43.992;2023-09-30T10:06:26;14.45;;;7.35;;
69246;SDS011;56358;56.328;43.992;2023-09-30T10:08:40;12.05;;;6.55;;
69246;SDS011;56358;56.328;43.992;2023-09-30T10:10:44;13.02;;;7.03;;
69246;SDS011;56358;56.328;43.992;2023-09-30T10:12:45;14.05;;;7.10;;
69246;SDS011;56358;56.328;43.992;2023-09-30T10:14:47;14.40;;;7.20;;
69246;SDS011;56358;56.328;43.992;2023-09-30T10:16:47;13.20;;;7.00;;
69246;SDS011;56358;56.328;43.992;2023-09-30T10:19:07;12.25;;;6.78;;
69246;SDS011;56358;56.328;43.992;2023-09-30T10:21:08;13.60;;;6.63;;
69246;SDS011;56358;56.328;43.992;2023-09-30T10:23:28;13.00;;;6.57;;
69246;SDS011;56358;56.328;43.992;2023-09-30T10:27:35;12.35;;;6.90;;
69246;SDS011;56358;56.328;43.992;2023-09-30T10:29:40;15.40;;;7.53;;
69246;SDS011;56358;56.328;43.992;2023-09-30T10:31:50;14.70;;;6.82;;
69246;SDS011;56358;56.328;43.992;2023-09-30T10:36:00;8.98;;;5.65;;
69246;SDS011;56358;56.328;43.992;2023-09-30T10:40:28;10.63;;;6.13;;
69246;SDS011;56358;56.328;43.992;2023-09-30T10:42:44;10.98;;;5.82;;
69246;SDS011;56358;56.328;43.992;2023-09-30T10:44:45;12.75;;;6.28;;
69246;SDS011;56358;56.328;43.992;2023-09-30T10:46:45;12.55;;;6.30;;
69246;SDS011;56358;56.328;43.992;2023-09-30T10:48:46;11.63;;;6.28;;
69246;SDS011;56358;56.328;43.992;2023-09-30T10:50:52;12.18;;;5.95;;
69246;SDS011;56358;56.328;43.992;2023-09-30T10:52:55;15.60;;;6.57;;
69246;SDS011;56358;56.328;43.992;2023-09-30T10:55:05;11.10;;;6.20;;
69246;SDS011;56358;56.328;43.992;2023-09-30T10:57:09;9.90;;;6.25;;
69246;SDS011;56358;56.328;43.992;2023-09-30T10:59:10;11.10;;;6.43;;
69246;SDS011;56358;56.328;43.992;2023-09-30T11:01:19;11.95;;;6.57;;
69246;SDS011;56358;56.328;43.992;2023-09-30T11:03:21;12.13;;;6.80;;
69246;SDS011;56358;56.328;43.992;2023-09-30T11:05:22;14.40;;;6.88;;
69246;SDS011;56358;56.328;43.992;2023-09-30T11:07:24;14.70;;;7.43;;
69246;SDS011;56358;56.328;43.992;2023-09-30T11:09:26;9.88;;;6.45;;
69246;SDS011;56358;56.328;43.992;2023-09-30T11:11:40;12.93;;;6.75;;
69246;SDS011;56358;56.328;43.992;2023-09-30T11:13:48;11.45;;;6.55;;
69246;SDS011;56358;56.328;43.992;2023-09-30T11:15:59;14.35;;;6.57;;
69246;SDS011;56358;56.328;43.992;2023-09-30T11:18:13;13.98;;;7.90;;
69246;SDS011;56358;56.328;43.992;2023-09-30T11:20:18;11.93;;;7.07;;
69246;SDS011;56358;56.328;43.992;2023-09-30T11:22:19;14.05;;;7.50;;
69246;SDS011;56358;56.328;43.992;2023-09-30T11:24:21;13.95;;;7.75;;
69246;SDS011;56358;56.328;43.992;2023-09-30T11:26:31;12.90;;;8.30;;
69246;SDS011;56358;56.328;43.992;2023-09-30T11:28:36;12.27;;;7.00;;
69246;SDS011;56358;56.328;43.992;2023-09-30T11:30:52;14.15;;;6.78;;
69246;SDS011;56358;56.328;43.992;2023-09-30T11:32:58;14.85;;;6.88;;
69246;SDS011;56358;56.328;43.992;2023-09-30T11:35:00;13.55;;;6.70;;
69246;SDS011;56358;56.328;43.992;2023-09-30T11:37:01;11.82;;;6.50;;
69246;SDS011;56358;56.328;43.992;2023-09-30T11:39:02;12.60;;;6.53;;
69246;SDS011;56358;56.328;43.992;2023-09-30T11:41:04;11.73;;;6.30;;
69246;SDS011;56358;56.328;43.992;2023-09-30T11:43:06;11.10;;;6.35;;
69246;SDS011;56358;56.328;43.992;2023-09-30T11:45:20;14.30;;;6.93;;
69246;SDS011;56358;56.328;43.992;2023-09-30T11:47:29;12.30;;;6.63;;
69246;SDS011;56358;56.328;43.992;2023-09-30T11:49:31;16.13;;;7.50;;
69246;SDS011;56358;56.328;43.992;2023-09-30T11:51:43;11.10;;;6.82;;
69246;SDS011;56358;56.328;43.992;2023-09-30T11:53:47;12.45;;;7.07;;
69246;SDS011;56358;56.328;43.992;2023-09-30T11:55:49;11.15;;;6.60;;
69246;SDS011;56358;56.328;43.992;2023-09-30T11:57:49;12.55;;;6.70;;
69246;SDS011;56358;56.328;43.992;2023-09-30T11:59:52;12.75;;;6.63;;